createdAt,value
2022-08-12T00:02:02.028Z,99557.59
2022-08-12T00:04:31.290Z,99561.47
2022-08-12T00:07:20.235Z,99521.88
2022-08-12T00:10:07.921Z,99568.50
2022-08-12T00:12:56.243Z,99560.72
2022-08-12T00:15:46.191Z,99562.97
2022-08-12T00:18:33.307Z,99569.56
2022-08-12T00:21:20.650Z,99568.75
2022-08-12T00:24:08.527Z,99570.34
2022-08-12T00:26:56.692Z,99575.28
2022-08-12T00:29:47.810Z,99568.94
2022-08-12T00:32:37.364Z,99568.53
2022-08-12T00:35:36.446Z,99562.69
2022-08-12T00:38:24.348Z,99560.41
2022-08-12T00:41:13.146Z,99566.66
2022-08-12T00:43:44.948Z,99557.91
2022-08-12T00:46:32.914Z,99567.75
2022-08-12T00:49:05.553Z,99559.75
2022-08-12T00:51:57.019Z,99565.84
2022-08-12T00:54:26.974Z,99559.59
2022-08-12T00:57:05.687Z,99563.78
2022-08-12T00:59:37.318Z,99564.63
2022-08-12T01:02:11.412Z,99559.19
2022-08-12T01:05:02.590Z,99563.88
2022-08-12T01:07:52.653Z,99557.97
2022-08-12T01:10:39.912Z,99559.38
2022-08-12T01:13:19.407Z,99559.84
2022-08-12T01:15:52.604Z,99561.97
2022-08-12T01:18:24.043Z,99553.66
2022-08-12T01:21:07.769Z,99560.34
2022-08-12T01:24:23.025Z,99558.41
2022-08-12T01:26:55.962Z,99557.63
2022-08-12T01:29:28.579Z,99553.59
2022-08-12T01:32:11.695Z,99554.63
2022-08-12T01:34:52.213Z,99548.56
2022-08-12T01:37:25.809Z,99550.47
2022-08-12T01:40:34.372Z,99549.03
2022-08-12T01:42:49.651Z,99537.97
2022-08-12T01:45:25.002Z,99536.94
2022-08-12T01:48:06.236Z,99538.97
2022-08-12T01:50:51.954Z,99530.84
2022-08-12T01:53:27.759Z,99532.75
2022-08-12T01:55:58.722Z,99537.56
2022-08-12T01:58:55.060Z,99536.31
2022-08-12T02:01:30.549Z,99540.31
2022-08-12T02:04:32.004Z,99534.28
2022-08-12T02:07:30.822Z,99539.91
2022-08-12T02:10:50.997Z,99537.59
2022-08-12T02:13:43.807Z,99540.06
2022-08-12T02:16:30.444Z,99527.97
2022-08-12T02:19:21.887Z,99541.78
2022-08-12T02:22:01.776Z,99545.38
2022-08-12T02:24:38.656Z,99533.03
2022-08-12T02:27:10.200Z,99529.72
2022-08-12T02:29:41.290Z,99535.31
2022-08-12T02:32:14.565Z,99534.13
2022-08-12T02:34:45.881Z,99543.50
2022-08-12T02:37:16.925Z,99537.84
2022-08-12T02:39:50.642Z,99537.66
2022-08-12T02:42:23.708Z,99535.38
2022-08-12T02:44:57.764Z,99534.34
2022-08-12T02:47:58.317Z,99522.00
2022-08-12T02:50:30.089Z,99532.63
2022-08-12T02:53:01.265Z,99534.31
2022-08-12T02:55:36.262Z,99536.84
2022-08-12T02:58:12.005Z,99537.25
2022-08-12T03:00:45.654Z,99543.13
2022-08-12T03:03:17.239Z,99537.88
2022-08-12T03:05:52.731Z,99526.00
2022-08-12T03:08:31.417Z,99511.81
2022-08-12T03:11:11.873Z,99534.38
2022-08-12T03:13:53.361Z,99543.97
2022-08-12T03:16:24.856Z,99547.72
2022-08-12T03:18:56.566Z,99546.06
2022-08-12T03:21:59.921Z,99546.47
2022-08-12T03:24:18.975Z,99543.97
2022-08-12T03:26:49.239Z,99551.50
2022-08-12T03:29:22.748Z,99548.97
2022-08-12T03:31:55.940Z,99550.22
2022-08-12T03:34:33.923Z,99543.16
2022-08-12T03:37:06.275Z,99544.59
2022-08-12T03:39:44.687Z,99543.13
2022-08-12T03:42:35.556Z,99545.22
2022-08-12T03:45:51.523Z,99545.63
2022-08-12T03:48:39.959Z,99547.72
2022-08-12T03:51:30.120Z,99541.91
2022-08-12T03:54:19.351Z,99556.94
2022-08-12T03:57:06.676Z,99556.06
2022-08-12T03:59:53.918Z,99552.31
2022-08-12T04:02:25.792Z,99556.72
2022-08-12T04:04:56.446Z,99564.88
2022-08-12T04:07:30.097Z,99562.75
2022-08-12T04:10:01.148Z,99571.97
2022-08-12T04:12:49.278Z,99560.69
2022-08-12T04:15:20.819Z,99571.97
2022-08-12T04:18:06.475Z,99568.41
2022-08-12T04:20:38.031Z,99573.19
2022-08-12T04:23:12.413Z,99578.00
2022-08-12T04:25:47.846Z,99578.00
2022-08-12T04:28:17.710Z,99581.59
2022-08-12T04:30:47.594Z,99587.41
2022-08-12T04:33:19.262Z,99579.47
2022-08-12T04:35:49.684Z,99586.59
2022-08-12T04:38:22.305Z,99570.50
2022-08-12T04:40:52.355Z,99580.31
2022-08-12T04:43:58.938Z,99582.19
2022-08-12T04:46:12.409Z,99579.47
2022-08-12T04:48:42.611Z,99579.03
2022-08-12T04:51:12.605Z,99587.41
2022-08-12T04:53:44.640Z,99580.94
2022-08-12T04:56:15.333Z,99573.63
2022-08-12T04:58:50.661Z,99579.66
2022-08-12T05:01:22.640Z,99572.97
2022-08-12T05:03:53.244Z,99573.41
2022-08-12T05:06:26.798Z,99582.38
2022-08-12T05:08:59.851Z,99560.44
2022-08-12T05:11:29.957Z,99590.25
2022-08-12T05:14:01.770Z,99593.56
2022-08-12T05:16:34.050Z,99589.75
2022-08-12T05:19:06.291Z,99591.81
2022-08-12T05:21:48.717Z,99586.97
2022-08-12T05:24:19.976Z,99590.56
2022-08-12T05:26:50.004Z,99595.34
2022-08-12T05:30:07.424Z,99596.38
2022-08-12T05:32:10.723Z,99582.56
2022-08-12T05:34:40.784Z,99586.69
2022-08-12T05:37:10.618Z,99588.94
2022-08-12T05:39:42.136Z,99592.56
2022-08-12T05:42:12.217Z,99582.84
2022-08-12T05:44:42.133Z,99586.41
2022-08-12T05:47:14.756Z,99602.75
2022-08-12T05:49:44.701Z,99599.53
2022-08-12T05:52:14.905Z,99595.72
2022-08-12T05:54:57.547Z,99594.53
2022-08-12T05:57:28.058Z,99594.44
2022-08-12T05:59:58.045Z,99593.91
2022-08-12T06:02:28.016Z,99593.38
2022-08-12T06:05:00.395Z,99571.59
2022-08-12T06:08:00.661Z,99587.41
2022-08-12T06:10:32.155Z,99595.00
2022-08-12T06:13:03.660Z,99597.03
2022-08-12T06:15:37.866Z,99594.78
2022-08-12T06:18:13.954Z,99594.75
2022-08-12T06:20:49.155Z,99590.41
2022-08-12T06:23:28.973Z,99589.25
2022-08-12T06:26:00.489Z,99584.88
2022-08-12T06:28:31.211Z,99581.63
2022-08-12T06:33:57.713Z,99585.03
2022-08-12T06:36:41.877Z,99589.88
2022-08-12T06:39:14.506Z,99589.41
2022-08-12T06:42:32.462Z,99592.13
2022-08-12T06:44:55.819Z,99585.19
2022-08-12T06:47:26.604Z,99586.19
2022-08-12T06:49:56.586Z,99593.19
2022-08-12T06:52:26.560Z,99588.56
2022-08-12T06:54:58.582Z,99583.94
2022-08-12T06:58:06.986Z,99576.59
2022-08-12T07:00:22.592Z,99574.28
2022-08-12T07:03:16.608Z,99568.81
2022-08-12T07:05:53.673Z,99568.00
2022-08-12T07:08:25.643Z,99566.81
2022-08-12T07:10:59.423Z,99572.75
2022-08-12T07:14:12.727Z,99567.38
2022-08-12T07:16:49.060Z,99562.78
2022-08-12T07:19:19.654Z,99556.38
2022-08-12T07:22:01.744Z,99521.06
2022-08-12T07:24:32.560Z,99558.28
2022-08-12T07:27:02.514Z,99558.75
2022-08-12T07:29:58.099Z,99552.00
2022-08-12T07:32:25.663Z,99544.84
2022-08-12T07:34:59.483Z,99553.78
2022-08-12T07:37:29.409Z,99552.22
2022-08-12T07:40:01.068Z,99554.38
2022-08-12T07:42:31.444Z,99551.06
2022-08-12T07:45:04.783Z,99544.28
2022-08-12T07:47:34.891Z,99544.53
2022-08-12T07:50:09.375Z,99541.06
2022-08-12T07:52:43.247Z,99527.97
2022-08-12T07:55:14.193Z,99543.56
2022-08-12T07:57:53.363Z,99539.75
2022-08-12T08:00:25.392Z,99535.00
2022-08-12T08:02:55.437Z,99534.38
2022-08-12T08:05:28.349Z,99537.81
2022-08-12T08:08:02.488Z,99533.41
2022-08-12T08:10:33.493Z,99538.16
2022-08-12T08:13:05.277Z,99533.84
2022-08-12T08:16:01.832Z,99527.75
2022-08-12T08:18:30.253Z,99531.63
2022-08-12T08:21:06.480Z,99530.63
2022-08-12T08:23:57.584Z,99531.94
2022-08-12T08:26:29.835Z,99489.19
2022-08-12T08:28:59.982Z,99520.34
2022-08-12T08:31:31.325Z,99520.53
2022-08-12T08:34:49.015Z,99510.72
2022-08-12T08:36:52.602Z,99519.94
2022-08-12T08:39:22.801Z,99522.41
2022-08-12T08:42:20.507Z,99506.72
2022-08-12T08:44:58.494Z,99503.22
2022-08-12T08:47:29.887Z,99511.44
2022-08-12T08:50:03.146Z,99497.50
2022-08-12T08:52:39.047Z,99504.06
2022-08-12T08:55:11.568Z,99440.81
2022-08-12T08:57:44.689Z,99504.06
2022-08-12T09:00:16.534Z,99501.59
2022-08-12T09:02:59.206Z,99492.91
2022-08-12T09:06:01.814Z,99497.09
2022-08-12T09:08:27.617Z,99485.88
2022-08-12T09:12:07.059Z,99481.75
2022-08-12T09:17:00.149Z,99486.94
2022-08-12T09:19:31.563Z,99481.19
2022-08-12T09:22:03.221Z,99478.97
2022-08-12T09:24:35.759Z,99483.88
2022-08-12T09:27:07.122Z,99468.59
2022-08-12T09:30:10.264Z,99469.09
2022-08-12T09:33:04.752Z,99466.66
2022-08-12T09:35:28.475Z,99456.47
2022-08-12T09:38:00.997Z,99462.59
2022-08-12T09:40:57.114Z,99441.03
2022-08-12T09:43:53.585Z,99468.59
2022-08-12T09:46:25.711Z,99473.38
2022-08-12T09:48:57.318Z,99462.50
2022-08-12T09:51:37.500Z,99442.75
2022-08-12T09:54:32.843Z,99455.06
2022-08-12T09:58:07.551Z,99454.16
2022-08-12T10:00:17.600Z,99435.59
2022-08-12T10:03:02.753Z,99430.97
2022-08-12T10:06:26.729Z,99438.41
2022-08-12T10:08:30.553Z,99425.78
2022-08-12T10:11:20.648Z,99441.00
2022-08-12T10:13:53.702Z,99437.13
2022-08-12T10:16:28.445Z,99433.59
2022-08-12T10:19:01.388Z,99390.59
2022-08-12T10:21:38.774Z,99423.28
2022-08-12T10:24:12.505Z,99424.94
2022-08-12T10:27:05.645Z,99420.78
2022-08-12T10:30:38.840Z,99416.56
2022-08-12T10:32:44.906Z,99421.16
2022-08-12T10:35:17.445Z,99407.31
2022-08-12T10:38:38.184Z,99410.78
2022-08-12T10:41:00.684Z,99407.84
2022-08-12T10:43:55.658Z,99401.81
2022-08-12T10:46:30.698Z,99398.41
2022-08-12T10:49:06.229Z,99402.97
2022-08-12T10:52:32.863Z,99398.75
2022-08-12T10:54:43.368Z,99401.31
2022-08-12T10:57:18.361Z,99397.31
2022-08-12T11:00:32.483Z,99398.66
2022-08-12T11:04:35.932Z,99384.19
2022-08-12T11:07:09.092Z,99354.72
2022-08-12T11:08:42.866Z,99381.88
2022-08-12T11:12:36.913Z,99372.88
2022-08-12T11:14:34.092Z,99367.69
2022-08-12T11:17:33.982Z,99374.16
2022-08-12T11:19:50.169Z,99354.50
2022-08-12T11:22:24.170Z,99349.78
2022-08-12T11:24:55.414Z,99354.78
2022-08-12T11:27:25.588Z,99352.72
2022-08-12T11:30:05.923Z,99352.19
2022-08-12T11:32:54.680Z,99352.44
2022-08-12T11:35:29.621Z,99352.44
2022-08-12T11:38:01.746Z,99346.25
2022-08-12T11:40:32.815Z,99347.13
2022-08-12T11:43:19.702Z,99322.94
2022-08-12T11:45:53.207Z,99336.22
2022-08-12T11:48:27.382Z,99325.50
2022-08-12T11:51:01.474Z,99330.00
2022-08-12T11:53:56.977Z,99323.41
2022-08-12T11:56:21.681Z,99323.63
2022-08-12T12:02:05.121Z,99317.91
2022-08-12T12:04:35.776Z,99312.09
2022-08-12T12:07:07.388Z,99308.53
2022-08-12T12:09:53.049Z,99306.66
2022-08-12T12:12:25.185Z,99310.78
2022-08-12T12:14:56.438Z,99296.56
2022-08-12T12:17:38.033Z,99306.75
2022-08-12T12:20:11.847Z,99290.53
2022-08-12T12:22:45.165Z,99288.28
2022-08-12T12:25:16.248Z,99285.56
2022-08-12T12:28:04.328Z,99278.16
2022-08-12T12:30:37.313Z,99279.47
2022-08-12T12:33:10.991Z,99282.28
2022-08-12T12:36:19.746Z,99240.88
2022-08-12T12:38:38.114Z,99277.53
2022-08-12T12:41:09.864Z,99264.63
2022-08-12T12:44:03.718Z,99267.31
2022-08-12T12:46:34.360Z,99258.63
2022-08-12T12:49:06.757Z,99277.00
2022-08-12T12:52:17.147Z,99267.41
2022-08-12T12:54:31.061Z,99254.66
2022-08-12T12:57:02.152Z,99262.13
2022-08-12T12:59:33.814Z,99257.19
2022-08-12T13:02:31.566Z,99251.50
2022-08-12T13:05:04.736Z,99253.47
2022-08-12T13:07:49.261Z,99253.13
2022-08-12T13:10:25.588Z,99239.41
2022-08-12T13:14:07.925Z,99244.34
2022-08-12T13:15:53.943Z,99232.28
2022-08-12T13:18:31.533Z,99233.09
2022-08-12T13:21:03.103Z,99228.38
2022-08-12T13:23:36.369Z,99232.47
2022-08-12T13:26:14.263Z,99224.00
2022-08-12T13:28:53.138Z,99218.78
2022-08-12T13:31:27.260Z,99207.75
2022-08-12T13:34:34.237Z,99215.47
2022-08-12T13:36:48.734Z,99228.09
2022-08-12T13:39:20.594Z,99219.31
2022-08-12T13:41:51.273Z,99223.16
2022-08-12T13:44:23.940Z,99213.03
2022-08-12T13:46:58.379Z,99220.44
2022-08-12T13:49:53.753Z,99213.59
2022-08-12T13:52:35.436Z,99215.22
2022-08-12T13:55:06.670Z,99177.25
2022-08-12T13:57:44.682Z,99208.16
2022-08-12T14:00:17.325Z,99208.44
2022-08-12T14:02:47.601Z,99206.97
2022-08-12T14:05:30.071Z,99196.84
2022-08-12T14:08:11.334Z,99204.00
2022-08-12T14:10:50.996Z,99195.50
2022-08-12T14:14:04.260Z,99201.22
2022-08-12T14:16:37.347Z,99203.09
2022-08-12T14:19:22.203Z,99209.41
2022-08-12T14:21:59.268Z,99194.28
2022-08-12T14:24:40.320Z,99200.34
2022-08-12T14:27:13.285Z,99194.06
2022-08-12T14:30:04.781Z,99186.06
2022-08-12T14:32:36.660Z,99195.38
2022-08-12T14:35:09.491Z,99190.16
2022-08-12T14:37:56.235Z,99180.25
2022-08-12T14:40:31.132Z,99183.56
2022-08-12T14:43:02.795Z,99175.88
2022-08-12T14:45:44.430Z,99186.31
2022-08-12T14:48:24.531Z,99176.44
2022-08-12T14:52:16.011Z,99178.34
2022-08-12T14:54:55.817Z,99174.75
2022-08-12T14:59:56.358Z,99155.78
2022-08-12T15:02:29.601Z,99163.19
2022-08-12T15:05:03.663Z,99163.97
2022-08-12T15:07:49.020Z,99159.59
2022-08-12T15:10:31.874Z,99156.84
2022-08-12T15:13:07.283Z,99152.41
2022-08-12T15:15:44.281Z,99140.56
2022-08-12T15:18:20.962Z,99154.88
2022-08-12T15:20:54.764Z,99146.38
2022-08-12T15:23:29.026Z,99154.03
2022-08-12T15:26:05.061Z,99149.59
2022-08-12T15:28:37.029Z,99150.66
2022-08-12T15:31:28.052Z,99152.84
2022-08-12T15:34:00.854Z,99157.97
2022-08-12T15:36:55.083Z,99162.16
2022-08-12T15:39:22.191Z,99146.22
2022-08-12T15:41:55.471Z,99150.59
2022-08-12T15:44:37.941Z,99147.31
2022-08-12T15:47:11.684Z,99158.25
2022-08-12T15:49:55.051Z,99146.41
2022-08-12T15:52:31.250Z,99125.19
2022-08-12T15:55:06.573Z,99143.34
2022-08-12T15:57:53.542Z,99152.53
2022-08-12T16:00:33.024Z,99139.41
2022-08-12T16:03:13.634Z,99133.16
2022-08-12T16:06:11.987Z,99140.56
2022-08-12T16:08:39.685Z,99138.91
2022-08-12T16:11:15.198Z,99123.34
2022-08-12T16:13:48.036Z,99144.31
2022-08-12T16:16:23.168Z,99143.06
2022-08-12T16:18:59.561Z,99150.47
2022-08-12T16:21:52.746Z,99127.81
2022-08-12T16:24:23.235Z,99146.56
2022-08-12T16:26:54.225Z,99149.78
2022-08-12T16:29:38.674Z,99150.88
2022-08-12T16:32:31.095Z,99150.66
2022-08-12T16:35:05.873Z,99151.16
2022-08-12T16:38:28.072Z,99154.69
2022-08-12T16:40:29.092Z,99156.09
2022-08-12T16:43:04.710Z,99151.63
2022-08-12T16:46:04.968Z,99156.81
2022-08-12T16:48:38.755Z,99165.00
2022-08-12T16:51:11.841Z,99154.53
2022-08-12T16:53:45.216Z,99121.69
2022-08-12T16:56:16.859Z,99156.16
2022-08-12T16:58:48.229Z,99159.94
2022-08-12T17:01:19.660Z,99154.41
2022-08-12T17:04:08.524Z,99160.66
2022-08-12T17:06:43.429Z,99162.53
2022-08-12T17:09:17.412Z,99157.75
2022-08-12T17:11:50.283Z,99159.13
2022-08-12T17:14:23.443Z,99163.47
2022-08-12T17:16:55.971Z,99167.28
2022-08-12T17:20:30.678Z,99167.81
2022-08-12T17:22:22.018Z,99162.84
2022-08-12T17:24:55.471Z,99161.72
2022-08-12T17:27:30.732Z,99162.16
2022-08-12T17:30:05.152Z,99170.91
2022-08-12T17:32:39.712Z,99175.56
2022-08-12T17:35:37.532Z,99175.84
2022-08-12T17:38:13.732Z,99174.13
2022-08-12T17:40:47.526Z,99150.38
2022-08-12T17:43:52.044Z,99174.00
2022-08-12T17:46:12.784Z,99178.34
2022-08-12T17:48:55.316Z,99181.00
2022-08-12T17:51:31.595Z,99193.91
2022-08-12T17:54:11.224Z,99193.00
2022-08-12T17:56:43.590Z,99185.19
2022-08-12T17:59:14.434Z,99187.66
2022-08-12T18:02:06.341Z,99190.09
2022-08-12T18:04:36.465Z,99187.81
2022-08-12T18:07:08.526Z,99190.53
2022-08-12T18:09:41.049Z,99199.81
2022-08-12T18:12:34.780Z,99196.78
2022-08-12T18:15:08.955Z,99200.53
2022-08-12T18:17:41.039Z,99196.94
2022-08-12T18:20:15.539Z,99202.50
2022-08-12T18:22:55.675Z,99185.59
2022-08-12T18:26:15.643Z,99213.97
2022-08-12T18:28:31.802Z,99209.00
2022-08-12T18:31:03.865Z,99209.19
2022-08-12T18:33:41.552Z,99215.47
2022-08-12T18:36:22.537Z,99212.16
2022-08-12T18:38:59.722Z,99209.34
2022-08-12T18:41:34.439Z,99202.75
2022-08-12T18:44:09.778Z,99209.09
2022-08-12T18:46:54.130Z,99213.75
2022-08-12T18:49:32.061Z,99214.41
2022-08-12T18:52:08.066Z,99202.88
2022-08-12T18:54:49.191Z,99216.66
2022-08-12T18:58:06.522Z,99224.78
2022-08-12T19:00:20.996Z,99227.44
2022-08-12T19:02:53.798Z,99213.34
2022-08-12T19:05:52.909Z,99224.13
2022-08-12T19:08:16.399Z,99222.47
2022-08-12T19:10:51.131Z,99221.03
2022-08-12T19:13:42.945Z,99227.81
2022-08-12T19:16:21.485Z,99224.41
2022-08-12T19:18:55.248Z,99227.91
2022-08-12T19:21:25.346Z,99230.81
2022-08-12T19:24:09.585Z,99228.22
2022-08-12T19:26:43.473Z,99238.09
2022-08-12T19:29:13.962Z,99241.88
2022-08-12T19:31:57.772Z,99231.19
2022-08-12T19:37:38.348Z,99237.25
2022-08-12T19:40:20.316Z,99233.09
2022-08-12T19:43:13.383Z,99240.88
2022-08-12T19:45:51.576Z,99243.47
2022-08-12T19:48:23.818Z,99243.34
2022-08-12T19:50:55.603Z,99238.63
2022-08-12T19:53:27.521Z,99248.50
2022-08-12T19:55:58.688Z,99239.97
2022-08-12T19:58:29.960Z,99247.59
2022-08-12T20:01:00.362Z,99244.50
2022-08-12T20:03:38.432Z,99238.53
2022-08-12T20:06:13.803Z,99237.84
2022-08-12T20:08:55.609Z,99236.66
2022-08-12T20:12:15.111Z,99243.94
2022-08-12T20:14:20.963Z,99251.56
2022-08-12T20:16:57.812Z,99246.69
2022-08-12T20:20:00.989Z,99247.38
2022-08-12T20:22:29.489Z,99255.91
2022-08-12T20:25:09.085Z,99258.69
2022-08-12T20:28:04.328Z,99256.69
2022-08-12T20:30:53.184Z,99259.78
2022-08-12T20:33:50.409Z,99261.75
2022-08-12T20:36:42.923Z,99256.94
2022-08-12T20:39:37.490Z,99258.56
2022-08-12T20:42:07.241Z,99260.81
2022-08-12T20:44:40.551Z,99260.25
2022-08-12T20:47:19.785Z,99267.72
2022-08-12T20:49:55.350Z,99266.75
2022-08-12T20:52:29.925Z,99249.66
2022-08-12T20:55:01.990Z,99266.19
2022-08-12T20:57:38.506Z,99259.53
2022-08-12T21:00:18.092Z,99271.63
2022-08-12T21:03:13.690Z,99271.16
2022-08-12T21:06:12.668Z,99265.22
2022-08-12T21:08:43.981Z,99266.44
2022-08-12T21:11:13.874Z,99270.31
2022-08-12T21:13:44.214Z,99264.28
2022-08-12T21:16:14.896Z,99270.22
2022-08-12T21:19:02.983Z,99269.25
2022-08-12T21:21:47.059Z,99265.00
2022-08-12T21:24:21.919Z,99273.53
2022-08-12T21:27:03.887Z,99274.59
2022-08-12T21:29:50.094Z,99234.19
2022-08-12T21:32:39.366Z,99270.94
2022-08-12T21:35:20.430Z,99275.19
2022-08-12T21:37:54.793Z,99275.06
2022-08-12T21:40:37.189Z,99270.78
2022-08-12T21:43:19.679Z,99253.13
2022-08-12T21:46:00.345Z,99263.81
2022-08-12T21:48:30.791Z,99264.88
2022-08-12T21:51:02.001Z,99259.78
2022-08-12T21:54:06.404Z,99223.47
2022-08-12T21:56:34.349Z,99262.50
2022-08-12T21:59:13.613Z,99265.94
2022-08-12T22:01:48.989Z,99254.81
2022-08-12T22:04:37.174Z,99260.13
2022-08-12T22:07:08.593Z,99255.25
2022-08-12T22:09:43.554Z,99255.00
2022-08-12T22:12:31.681Z,99246.09
2022-08-12T22:15:03.866Z,99241.16
2022-08-12T22:17:49.552Z,99249.69
2022-08-12T22:20:21.948Z,99253.84
2022-08-12T22:22:53.941Z,99239.81
2022-08-12T22:25:27.874Z,99235.56
2022-08-12T22:28:14.457Z,99239.97
2022-08-12T22:31:02.929Z,99231.94
2022-08-12T22:33:54.057Z,99224.78
2022-08-12T22:36:29.220Z,99214.34
2022-08-12T22:39:00.946Z,99221.47
2022-08-12T22:41:48.128Z,99224.19
2022-08-12T22:44:54.693Z,99221.81
2022-08-12T22:47:55.458Z,99221.31
2022-08-12T22:50:28.855Z,99222.66
2022-08-12T22:53:15.311Z,99220.19
2022-08-12T22:56:06.089Z,99217.22
2022-08-12T22:58:40.500Z,99214.22
2022-08-12T23:01:21.080Z,99222.50
2022-08-12T23:03:53.938Z,99219.47
2022-08-12T23:06:26.909Z,99204.91
2022-08-12T23:08:57.104Z,99213.34
2022-08-12T23:11:36.266Z,99220.13
2022-08-12T23:14:12.730Z,99214.38
2022-08-12T23:16:45.243Z,99205.25
2022-08-12T23:19:23.363Z,99208.94
2022-08-12T23:22:05.397Z,99211.47
2022-08-12T23:24:55.854Z,99204.47
2022-08-12T23:27:52.362Z,99213.56
2022-08-12T23:30:31.028Z,99210.28
2022-08-12T23:33:01.561Z,99209.16
2022-08-12T23:35:53.645Z,99210.09
2022-08-12T23:38:30.354Z,99207.66
2022-08-12T23:41:05.805Z,99209.78
2022-08-12T23:43:39.951Z,99172.63
2022-08-12T23:46:12.431Z,99197.09
2022-08-12T23:48:51.651Z,99200.72
2022-08-12T23:51:24.621Z,99198.16
2022-08-12T23:54:00.195Z,99188.81
2022-08-12T23:56:33.605Z,99186.06
2022-08-12T23:59:07.671Z,99144.97
